Overview Statistics Trail Chart Weather Telemetry Raw packets
 

This is the latest recevied weather packets stored in our database for station/object 9A7DI-13. If no packets are shown the sender has not sent any weather packets the latest 10 day(s).

<< 46 47 48 49 50 51 52 >>
Time Temp. Humidity Pressure Rain* Wind** Luminosity Snow
1787952413 24.44° C 68% 1020.5 hPa - - - -
1787951813 25° C 68% 1020.5 hPa - - - -
1787951214 25° C 68% 1020.6 hPa - - - -
1787950614 25° C 67% 1020.6 hPa - - - -
1787950014 24.44° C 69% 1020.6 hPa - - - -
1787948823 24.44° C 71% 1020.7 hPa - - - -
1787948213 24.44° C 72% 1020.7 hPa - - - -
1787947614 25° C 67% 1020.7 hPa - - - -
1787947014 25.56° C 64% 1020.7 hPa - - - -
1787946414 26.11° C 63% 1020.6 hPa - - - -
1787945814 25.56° C 65% 1020.6 hPa - - - -
1787945214 25.56° C 63% 1020.6 hPa - - - -
1787944614 26.67° C 61% 1020.7 hPa - - - -
1787944014 26.67° C 60% 1020.6 hPa - - - -
1787943414 26.11° C 63% 1020.6 hPa - - - -
1787942814 26.67° C 60% 1020.7 hPa - - - -
1787942214 27.78° C 56% 1020.7 hPa - - - -
1787941614 28.33° C 54% 1020.6 hPa - - - -
1787941014 28.89° C 52% 1020.5 hPa - - - -
1787940414 28.33° C 53% 1020.4 hPa - - - -
1787939814 28.89° C 52% 1020.3 hPa - - - -
1787939215 29.44° C 49% 1020.2 hPa - - - -
1787938614 29.44° C 49% 1020.1 hPa - - - -
1787938014 29.44° C 50% 1020.1 hPa - - - -
1787937414 31.11° C 46% 1020.2 hPa - - - -

* Rain since midnight (hover to see other rain measurements)
** Current wind speed in m/s (hover to see current wind gust speed)